Time;durP1;ratioP1;P1;durP2;ratioP2;P2;SDS_P1;SDS_P2;PMS_P1;PMS_P2;Temp;Humidity;BMP_temperature;BMP_pressure;BME280_temperature;BME280_humidity;BME280_pressure;Samples;Min_cycle;Max_cycle;Signal;HPM_P1;HPM_P2
2021/12/20 00:02:06;;;;;;;4.47;3.80;;;;;;;6.54;53.80;93936.38;5067659;28;20554;-74
2021/12/20 00:04:32;;;;;;;6.90;4.33;;;;;;;6.52;53.85;93948.75;5067287;28;20170;-74
2021/12/20 00:06:58;;;;;;;5.87;4.33;;;;;;;6.32;54.88;93966.75;5066368;28;20839;-74
2021/12/20 00:09:23;;;;;;;5.97;5.37;;;;;;;6.56;54.23;93965.59;5068316;28;20212;-75
2021/12/20 00:11:49;;;;;;;4.30;3.87;;;;;;;6.29;55.38;93959.34;5067932;28;20189;-74
2021/12/20 00:14:14;;;;;;;6.63;3.93;;;;;;;6.15;55.19;93953.22;5066182;28;20197;-75
2021/12/20 00:16:40;;;;;;;6.23;4.07;;;;;;;6.32;55.42;93957.19;5066722;28;20194;-75
2021/12/20 00:19:09;;;;;;;5.47;4.77;;;;;;;6.01;55.67;93963.47;5068117;28;20175;-74
2021/12/20 00:21:35;;;;;;;5.50;3.80;;;;;;;6.34;54.82;93977.78;5066775;28;20226;-74
2021/12/20 00:24:00;;;;;;;5.20;4.70;;;;;;;6.48;54.63;93973.53;5068650;28;20409;-75
2021/12/20 00:26:28;;;;;;;5.07;4.63;;;;;;;6.25;55.29;93977.88;5068240;28;20500;-75
2021/12/20 00:28:54;;;;;;;4.77;4.13;;;;;;;6.09;56.27;93948.72;5068023;28;20245;-75
2021/12/20 00:31:19;;;;;;;4.77;4.37;;;;;;;6.87;54.09;93985.25;5066065;28;20440;-74
2021/12/20 00:33:44;;;;;;;6.50;4.90;;;;;;;6.24;55.67;93957.28;5067323;28;20174;-75
2021/12/20 00:36:10;;;;;;;3.53;3.17;;;;;;;6.28;55.17;93979.34;5066259;28;20189;-74
2021/12/20 00:41:21;;;;;;;4.87;4.40;;;;;;;6.45;55.38;93969.50;5067513;28;20213;-75
2021/12/20 00:43:47;;;;;;;5.23;4.63;;;;;;;6.30;55.45;93974.75;5067757;28;20420;-75
2021/12/20 00:46:13;;;;;;;4.27;3.87;;;;;;;6.76;54.48;93970.97;5067637;28;20435;-75
2021/12/20 00:48:38;;;;;;;4.43;4.13;;;;;;;6.35;54.91;93959.41;5068107;28;20230;-75
2021/12/20 00:51:04;;;;;;;4.27;3.87;;;;;;;6.21;55.39;93968.06;5066026;28;20206;-74
2021/12/20 00:53:29;;;;;;;4.40;4.00;;;;;;;6.21;55.56;93960.28;5067391;28;20193;-75
2021/12/20 00:55:55;;;;;;;4.47;4.17;;;;;;;6.45;54.61;93957.31;5067292;28;20205;-75
2021/12/20 00:58:20;;;;;;;4.00;3.70;;;;;;;6.20;55.66;93953.44;5065792;28;20166;-75
2021/12/20 01:00:51;;;;;;;5.43;4.33;;;;;;;6.14;55.22;93954.19;5066422;28;20214;-75
2021/12/20 01:03:19;;;;;;;4.27;3.97;;;;;;;6.37;55.53;93952.22;5065571;28;20163;-75
2021/12/20 01:05:48;;;;;;;4.23;3.93;;;;;;;6.58;54.90;93950.59;5065630;28;20488;-75
2021/12/20 01:08:15;;;;;;;4.97;4.57;;;;;;;6.36;55.60;93955.81;5065672;28;20401;-75
2021/12/20 01:10:49;;;;;;;4.77;4.37;;;;;;;6.15;55.68;93943.63;5065587;28;20428;-75
2021/12/20 01:13:16;;;;;;;4.70;4.30;;;;;;;5.91;55.74;93941.34;5065629;28;20405;-75
2021/12/20 01:15:47;;;;;;;3.87;3.57;;;;;;;6.06;55.78;93942.94;5065761;28;20432;-75
2021/12/20 01:18:13;;;;;;;6.60;3.03;;;;;;;6.36;55.30;93953.22;5064550;28;20421;-74
2021/12/20 01:20:41;;;;;;;4.00;3.70;;;;;;;6.52;54.01;93944.34;5066240;28;20507;-75
2021/12/20 01:23:08;;;;;;;3.70;3.33;;;;;;;6.36;54.85;93934.25;5065858;28;20402;-74
2021/12/20 01:25:35;;;;;;;4.27;3.87;;;;;;;5.87;55.50;93951.28;5064053;28;20417;-74
2021/12/20 01:28:01;;;;;;;3.83;3.53;;;;;;;6.22;54.82;93951.47;5065973;28;20808;-74
2021/12/20 01:30:27;;;;;;;4.10;3.80;;;;;;;6.15;54.59;93948.81;5065286;28;20525;-74
2021/12/20 01:32:53;;;;;;;4.63;3.70;;;;;;;6.34;54.13;93962.19;5065039;28;20406;-74
2021/12/20 01:35:23;;;;;;;4.53;4.13;;;;;;;6.49;53.31;93949.13;5064627;28;20483;-75
2021/12/20 01:37:48;;;;;;;2.80;2.60;;;;;;;6.39;54.00;93957.22;5064836;28;20502;-75
2021/12/20 01:40:16;;;;;;;5.73;3.60;;;;;;;6.35;53.56;93946.41;5064528;28;20460;-74
2021/12/20 01:42:42;;;;;;;3.80;3.47;;;;;;;6.31;54.16;93934.78;5064798;28;20174;-75
2021/12/20 01:45:14;;;;;;;3.40;3.10;;;;;;;6.48;53.20;93955.31;5065393;28;20425;-75
2021/12/20 01:47:44;;;;;;;3.20;3.00;;;;;;;6.20;54.02;93950.84;5064835;28;20424;-74
2021/12/20 01:52:57;;;;;;;3.87;3.67;;;;;;;6.83;52.65;93971.84;5053794;28;20437;-74
2021/12/20 01:55:22;;;;;;;3.60;3.10;;;;;;;6.42;53.50;93962.88;5065841;28;20417;-74
2021/12/20 01:57:49;;;;;;;4.10;3.80;;;;;;;6.45;53.72;93975.50;5065131;28;20174;-74
2021/12/20 02:00:24;;;;;;;3.87;3.27;;;;;;;6.24;54.12;93962.47;5065192;28;20206;-75
2021/12/20 02:02:59;;;;;;;3.80;3.50;;;;;;;6.42;53.18;93968.06;5063650;28;20401;-75
2021/12/20 02:05:46;;;;;;;4.13;3.83;;;;;;;6.91;52.17;93978.69;5065168;28;20417;-75
2021/12/20 02:08:24;;;;;;;4.10;3.80;;;;;;;6.54;53.49;93972.78;5064945;28;20397;-74
2021/12/20 02:10:56;;;;;;;3.03;2.83;;;;;;;6.32;53.89;93959.78;5064656;28;20421;-75
2021/12/20 02:13:24;;;;;;;3.63;3.40;;;;;;;5.94;55.03;93959.97;5064076;28;20400;-75
2021/12/20 02:15:50;;;;;;;4.20;3.90;;;;;;;6.00;55.77;93972.22;5064263;28;20463;-75
2021/12/20 02:18:16;;;;;;;5.43;4.00;;;;;;;6.51;54.14;93962.75;5064466;28;20873;-75
2021/12/20 02:20:42;;;;;;;5.47;3.43;;;;;;;6.11;55.33;93967.53;5062880;28;20513;-75
2021/12/20 02:23:08;;;;;;;5.50;4.70;;;;;;;5.70;56.95;93965.47;5064429;28;20435;-75
2021/12/20 02:25:35;;;;;;;4.57;4.20;;;;;;;6.08;54.80;93960.94;5064571;28;20178;-75
2021/12/20 02:28:07;;;;;;;3.53;3.30;;;;;;;6.14;54.94;93972.38;5064591;28;20413;-75
2021/12/20 02:38:30;;;;;;;5.13;4.70;;;;;;;6.53;54.93;93961.56;5067882;28;20408;-75
2021/12/20 02:40:58;;;;;;;5.27;4.27;;;;;;;6.19;55.52;93957.06;5067925;28;20460;-75
2021/12/20 02:43:24;;;;;;;5.83;4.20;;;;;;;6.55;54.82;93969.19;5068163;28;20409;-76
2021/12/20 02:45:49;;;;;;;4.23;3.93;;;;;;;6.20;55.46;93980.25;5066760;28;20773;-74
2021/12/20 02:48:15;;;;;;;4.27;3.87;;;;;;;6.14;55.38;93969.78;5068080;28;20162;-75
2021/12/20 02:50:40;;;;;;;4.63;4.23;;;;;;;6.60;54.27;93982.41;5068088;28;20171;-75
2021/12/20 02:53:05;;;;;;;5.20;3.50;;;;;;;6.08;55.64;93978.31;5068034;28;20539;-75
2021/12/20 02:55:31;;;;;;;5.87;4.60;;;;;;;6.37;55.24;93978.19;5068306;28;20193;-74
2021/12/20 02:57:57;;;;;;;5.63;5.07;;;;;;;6.41;55.58;93973.44;5067849;28;20531;-75
2021/12/20 03:00:22;;;;;;;5.53;5.07;;;;;;;5.59;57.32;93957.13;5067966;28;20233;-75
2021/12/20 03:02:48;;;;;;;4.47;3.77;;;;;;;6.04;56.55;93952.69;5067908;28;20171;-74
2021/12/20 03:05:13;;;;;;;4.70;4.30;;;;;;;6.00;56.15;93955.84;5067570;28;20552;-74
2021/12/20 03:07:48;;;;;;;4.63;4.20;;;;;;;5.87;56.55;93944.28;5067496;28;20173;-74
2021/12/20 03:10:14;;;;;;;4.50;4.03;;;;;;;6.32;54.96;93948.56;5067599;28;20170;-75
2021/12/20 03:12:40;;;;;;;4.87;4.47;;;;;;;6.53;54.84;93961.56;5067617;28;20416;-74
2021/12/20 03:15:12;;;;;;;5.43;4.37;;;;;;;6.17;56.06;93959.81;5066289;28;20425;-74
2021/12/20 03:17:38;;;;;;;5.10;4.70;;;;;;;6.63;55.09;93961.25;5067469;28;20223;-75
2021/12/20 03:20:05;;;;;;;4.57;4.17;;;;;;;6.71;54.48;93962.91;5067067;28;20472;-75
2021/12/20 03:22:30;;;;;;;4.40;4.00;;;;;;;6.21;56.12;93955.06;5067442;28;20443;-74
2021/12/20 03:24:56;;;;;;;5.20;4.80;;;;;;;6.36;56.07;93955.81;5067381;28;20428;-74
2021/12/20 03:27:21;;;;;;;5.83;4.87;;;;;;;6.36;55.17;93950.63;5067198;28;20166;-74
2021/12/20 03:29:47;;;;;;;6.50;3.93;;;;;;;6.11;55.95;93962.34;5067406;28;20622;-73
2021/12/20 03:32:13;;;;;;;5.03;4.63;;;;;;;6.21;55.88;93958.47;5067286;28;20173;-74
2021/12/20 03:34:38;;;;;;;2.73;2.53;;;;;;;6.14;55.86;93959.38;5066886;28;20178;-74
2021/12/20 03:37:04;;;;;;;5.23;4.33;;;;;;;6.62;54.83;93962.22;5067123;28;20171;-75
2021/12/20 03:39:29;;;;;;;6.10;5.50;;;;;;;6.42;55.21;93962.88;5066832;28;20190;-74
2021/12/20 03:41:55;;;;;;;5.93;5.07;;;;;;;6.56;54.72;93966.38;5065893;28;20174;-74
2021/12/20 03:44:21;;;;;;;5.90;4.60;;;;;;;6.61;55.23;93971.03;5066783;28;20167;-74
2021/12/20 03:46:46;;;;;;;6.57;5.87;;;;;;;6.58;54.25;93969.63;5066842;28;20197;-75
2021/12/20 03:49:12;;;;;;;3.13;2.93;;;;;;;6.01;56.55;93963.47;5066759;28;20167;-74
2021/12/20 03:51:38;;;;;;;4.50;4.10;;;;;;;6.13;56.14;93957.75;5066857;28;20274;-74
2021/12/20 03:54:04;;;;;;;4.33;4.00;;;;;;;6.49;54.90;93959.50;5065136;28;20178;-74
2021/12/20 03:56:29;;;;;;;5.10;4.57;;;;;;;6.74;54.88;93984.16;5066974;28;20421;-74
2021/12/20 03:58:55;;;;;;;5.70;5.30;;;;;;;6.40;55.68;93977.84;5066601;28;20477;-73
2021/12/20 04:01:21;;;;;;;4.97;4.20;;;;;;;6.37;55.70;93973.00;5066794;28;20202;-74
2021/12/20 04:03:49;;;;;;;5.37;4.67;;;;;;;6.53;55.05;93977.16;5064919;28;20444;-75
2021/12/20 04:06:15;;;;;;;5.20;4.70;;;;;;;6.30;56.01;93982.56;5066695;28;20167;-75
2021/12/20 04:08:41;;;;;;;3.93;3.60;;;;;;;6.00;57.31;93987.81;5066632;28;20412;-74
2021/12/20 04:11:08;;;;;;;5.33;4.83;;;;;;;5.91;57.96;93990.66;5066637;28;20779;-75
2021/12/20 04:13:33;;;;;;;6.57;5.17;;;;;;;6.39;56.93;93997.03;5066464;28;20409;-75
2021/12/20 04:15:59;;;;;;;6.60;5.27;;;;;;;6.51;56.13;93984.34;5066599;28;20429;-75
2021/12/20 04:18:27;;;;;;;5.53;5.03;;;;;;;6.27;57.25;93998.50;5065042;28;20170;-75
2021/12/20 04:20:59;;;;;;;6.43;5.83;;;;;;;6.61;56.07;94004.84;5066191;28;21020;-75
2021/12/20 04:23:25;;;;;;;5.83;5.30;;;;;;;6.61;56.17;94010.81;5066208;28;20420;-74
2021/12/20 04:25:50;;;;;;;4.40;4.00;;;;;;;6.12;57.81;94008.13;5066127;28;20422;-74
2021/12/20 04:28:16;;;;;;;4.40;3.97;;;;;;;6.32;57.18;94009.16;5066058;28;20173;-74
2021/12/20 04:30:41;;;;;;;4.40;4.00;;;;;;;6.54;56.57;93998.75;5064450;28;20178;-74
2021/12/20 04:33:07;;;;;;;5.23;4.73;;;;;;;6.80;55.28;94004.19;5065933;28;20179;-76
2021/12/20 04:35:33;;;;;;;7.70;7.00;;;;;;;6.70;56.16;94008.91;5064829;28;20183;-75
2021/12/20 04:37:59;;;;;;;5.33;4.83;;;;;;;6.54;56.32;94002.16;5065776;28;20171;-74
2021/12/20 04:40:25;;;;;;;5.10;4.40;;;;;;;6.50;56.18;94013.13;5065767;28;20202;-75
2021/12/20 04:42:54;;;;;;;5.40;4.90;;;;;;;6.76;55.93;94012.56;5065590;28;20429;-74
2021/12/20 04:45:21;;;;;;;9.07;6.10;;;;;;;6.52;56.43;94016.34;5065509;28;20421;-74
2021/12/20 04:47:47;;;;;;;5.30;4.80;;;;;;;6.24;57.46;94014.44;5065650;28;20909;-75
2021/12/20 04:50:13;;;;;;;4.97;4.57;;;;;;;5.93;57.37;94015.47;5065502;28;20556;-74
2021/12/20 04:52:40;;;;;;;6.93;4.80;;;;;;;6.25;56.80;94026.44;5065165;28;20429;-75
2021/12/20 04:55:07;;;;;;;5.70;4.00;;;;;;;6.00;57.76;94016.38;5065995;28;20421;-74
2021/12/20 04:57:58;;;;;;;3.97;3.57;;;;;;;5.98;58.43;94026.16;5065834;28;20905;-75
2021/12/20 05:00:27;;;;;;;5.67;5.17;;;;;;;6.33;57.36;94033.31;5064532;28;20480;-74
2021/12/20 05:02:52;;;;;;;5.00;4.60;;;;;;;5.99;58.47;94029.53;5063985;28;20413;-74
2021/12/20 05:05:20;;;;;;;6.27;5.67;;;;;;;6.32;58.01;94035.13;5065253;28;20516;-74
2021/12/20 05:07:47;;;;;;;4.67;4.37;;;;;;;6.10;58.77;94036.06;5065243;28;20233;-74
2021/12/20 05:10:25;;;;;;;4.87;4.43;;;;;;;6.20;58.77;94033.97;5063727;28;20512;-74
2021/12/20 05:12:52;;;;;;;6.53;5.10;;;;;;;6.51;57.80;94038.13;5065260;28;20423;-74
2021/12/20 05:15:18;;;;;;;4.50;4.10;;;;;;;6.38;57.98;94044.78;5065064;28;20425;-74
2021/12/20 05:17:43;;;;;;;3.80;3.50;;;;;;;6.09;58.55;94047.44;5065310;28;20942;-74
2021/12/20 05:20:09;;;;;;;5.53;4.57;;;;;;;6.15;58.80;94062.31;5064790;28;20224;-74
2021/12/20 05:22:35;;;;;;;7.27;5.70;;;;;;;6.27;58.37;94054.84;5063930;28;20209;-74
2021/12/20 05:25:00;;;;;;;4.53;4.10;;;;;;;6.28;58.17;94057.28;5065333;28;20425;-74
2021/12/20 05:27:26;;;;;;;5.67;4.80;;;;;;;6.39;57.90;94053.38;5063599;28;20351;-74
2021/12/20 05:29:51;;;;;;;5.13;4.50;;;;;;;5.85;59.25;94067.50;5064960;28;20522;-74
2021/12/20 05:32:17;;;;;;;5.90;5.40;;;;;;;6.14;59.31;94071.06;5063292;28;20183;-74
2021/12/20 05:34:42;;;;;;;5.33;4.93;;;;;;;6.21;58.89;94071.97;5064673;28;20178;-74
2021/12/20 05:37:08;;;;;;;6.50;5.27;;;;;;;6.33;58.42;94070.50;5064915;28;20194;-74
2021/12/20 05:39:34;;;;;;;6.43;4.97;;;;;;;6.13;59.20;94083.28;5063085;28;20194;-74
2021/12/20 05:41:59;;;;;;;4.40;4.00;;;;;;;5.92;60.18;94072.75;5064687;28;20174;-74
2021/12/20 05:44:25;;;;;;;4.30;3.90;;;;;;;5.95;59.60;94078.44;5063493;28;20320;-74
2021/12/20 05:46:52;;;;;;;6.80;5.67;;;;;;;5.90;59.93;94080.75;5063497;28;20205;-74
2021/12/20 05:49:18;;;;;;;5.83;5.33;;;;;;;6.22;58.94;94084.78;5096790;28;20183;-74
2021/12/20 05:51:43;;;;;;;3.90;3.60;;;;;;;5.82;59.81;94081.66;5063387;28;20494;-74
2021/12/20 05:54:09;;;;;;;7.07;5.30;;;;;;;6.03;59.99;94096.53;5064831;28;20170;-74
2021/12/20 05:56:34;;;;;;;7.33;5.60;;;;;;;5.98;59.82;94075.47;5063108;28;20182;-74
2021/12/20 05:59:00;;;;;;;6.17;5.67;;;;;;;6.05;59.10;94078.97;5063338;28;20174;-74
2021/12/20 06:01:25;;;;;;;6.83;6.23;;;;;;;6.33;58.44;94095.69;5063199;28;20210;-74
2021/12/20 06:03:51;;;;;;;4.67;4.27;;;;;;;5.72;59.90;94081.09;5066627;28;20233;-74
2021/12/20 06:06:16;;;;;;;6.90;4.90;;;;;;;6.27;59.02;94084.22;5070211;28;20343;-75
2021/12/20 06:08:42;;;;;;;6.33;5.73;;;;;;;5.93;60.00;94080.38;5069131;28;20192;-74
2021/12/20 06:11:07;;;;;;;5.10;4.70;;;;;;;6.00;59.43;94078.69;5069048;28;20175;-74
2021/12/20 06:13:33;;;;;;;4.23;3.93;;;;;;;5.77;60.04;94072.78;5068972;28;20170;-74
2021/12/20 06:15:58;;;;;;;5.67;5.10;;;;;;;6.38;58.57;94082.97;5068574;28;20206;-74
2021/12/20 06:18:23;;;;;;;6.60;4.97;;;;;;;6.02;59.30;94074.13;5067304;28;20247;-74
2021/12/20 06:20:49;;;;;;;6.00;5.10;;;;;;;6.25;58.73;94079.19;5068358;28;20233;-74
2021/12/20 06:23:14;;;;;;;4.80;4.30;;;;;;;6.50;58.24;94083.28;5068852;28;20205;-75
2021/12/20 06:25:40;;;;;;;6.10;5.50;;;;;;;6.16;58.58;94080.28;5068245;28;20174;-74
2021/12/20 06:28:06;;;;;;;8.10;6.50;;;;;;;6.11;59.36;94092.22;5068706;28;20233;-74
2021/12/20 06:30:31;;;;;;;3.87;3.40;;;;;;;6.02;59.16;94092.31;5068757;28;20177;-74
2021/12/20 06:32:57;;;;;;;5.83;5.00;;;;;;;6.16;58.73;94087.28;5068494;28;20181;-74
2021/12/20 06:35:22;;;;;;;5.43;4.67;;;;;;;6.29;58.30;94091.84;5068433;28;20244;-74
2021/12/20 06:37:58;;;;;;;4.00;3.43;;;;;;;6.36;57.85;94095.34;5066792;28;20171;-74
2021/12/20 06:40:25;;;;;;;6.57;5.97;;;;;;;6.64;57.29;94087.66;5068193;28;20202;-74
2021/12/20 06:42:50;;;;;;;5.73;5.23;;;;;;;6.10;58.33;94091.41;5068840;28;20405;-74
2021/12/20 06:45:16;;;;;;;5.47;5.07;;;;;;;5.92;57.88;94096.94;5068906;28;20949;-74
2021/12/20 06:47:42;;;;;;;5.60;4.97;;;;;;;6.55;56.85;94099.16;5067234;28;20531;-74
2021/12/20 06:50:08;;;;;;;9.00;5.13;;;;;;;6.35;57.00;94091.91;5068180;28;20182;-74
2021/12/20 06:52:36;;;;;;;4.40;3.50;;;;;;;6.24;57.54;94107.97;5067792;28;20520;-74
2021/12/20 06:55:03;;;;;;;3.73;3.43;;;;;;;6.13;57.62;94090.22;5067611;28;20422;-74
2021/12/20 06:57:28;;;;;;;6.13;4.27;;;;;;;6.41;56.87;94109.41;5068039;28;20493;-74
2021/12/20 06:59:54;;;;;;;5.03;4.30;;;;;;;5.96;59.21;94100.03;5066617;28;20551;-74
2021/12/20 07:02:19;;;;;;;4.13;3.73;;;;;;;6.04;58.62;94090.34;5067896;28;20549;-74
2021/12/20 07:04:45;;;;;;;4.87;4.27;;;;;;;6.11;58.83;94107.78;5067489;28;20182;-74
2021/12/20 07:07:10;;;;;;;6.33;4.93;;;;;;;6.03;58.46;94096.53;5066094;28;20174;-74
2021/12/20 07:09:36;;;;;;;4.40;4.00;;;;;;;6.09;58.06;94094.19;5067465;28;20571;-75
2021/12/20 07:12:03;;;;;;;4.30;3.90;;;;;;;5.81;58.89;94082.63;5067374;28;20544;-74
2021/12/20 07:14:29;;;;;;;7.13;5.10;;;;;;;6.32;57.78;94099.25;5067272;28;20668;-74
2021/12/20 07:16:55;;;;;;;5.53;5.00;;;;;;;6.39;57.99;94106.16;5067344;28;20431;-74
2021/12/20 07:19:21;;;;;;;4.23;3.77;;;;;;;6.03;58.89;94106.91;5065874;28;20646;-74
2021/12/20 07:21:47;;;;;;;4.40;4.00;;;;;;;6.21;57.97;94092.75;5067147;28;20491;-74
2021/12/20 07:24:14;;;;;;;4.97;4.50;;;;;;;6.49;58.30;94099.84;5067257;28;20198;-74
2021/12/20 07:26:43;;;;;;;4.80;4.30;;;;;;;6.27;58.81;94101.63;5067469;28;20500;-75
2021/12/20 07:29:08;;;;;;;5.40;4.90;;;;;;;6.43;57.72;94094.44;5065705;28;20680;-74
2021/12/20 07:31:34;;;;;;;4.40;4.00;;;;;;;6.22;57.78;94102.97;5065925;28;20421;-74
2021/12/20 07:33:59;;;;;;;4.43;4.03;;;;;;;6.33;58.41;94106.88;5067322;28;20166;-75
2021/12/20 07:36:25;;;;;;;6.20;4.60;;;;;;;6.51;57.90;94110.91;5067527;28;20594;-75
2021/12/20 07:38:51;;;;;;;3.97;3.57;;;;;;;6.50;56.69;94101.47;5067827;28;20209;-75
2021/12/20 07:41:19;;;;;;;4.33;3.93;;;;;;;6.23;57.55;94111.56;5066597;28;20658;-76
2021/12/20 07:43:45;;;;;;;5.47;4.37;;;;;;;6.44;56.99;94106.41;5065091;28;20452;-76
2021/12/20 07:46:11;;;;;;;3.73;3.40;;;;;;;6.57;56.63;94113.56;5051341;28;20959;-75
2021/12/20 07:48:36;;;;;;;4.20;3.83;;;;;;;5.88;57.82;94093.09;5067071;28;20478;-77
2021/12/20 07:51:02;;;;;;;3.83;3.63;;;;;;;6.31;57.27;94118.44;5065358;28;20254;-76
2021/12/20 07:53:27;;;;;;;4.27;3.97;;;;;;;6.51;57.09;94108.31;5066196;28;20186;-75
2021/12/20 07:55:53;;;;;;;3.67;3.37;;;;;;;6.34;56.94;94103.31;5066082;28;20170;-75
2021/12/20 07:58:20;;;;;;;3.13;2.80;;;;;;;6.32;57.21;94101.84;5067009;28;20178;-76
2021/12/20 08:00:46;;;;;;;3.73;3.40;;;;;;;6.24;57.65;94107.97;5066702;28;20198;-74
2021/12/20 08:03:12;;;;;;;4.83;4.27;;;;;;;6.10;57.98;94101.00;5065418;28;20492;-77
2021/12/20 08:05:38;;;;;;;3.23;3.00;;;;;;;6.48;56.66;94104.25;5066607;28;20507;-76
2021/12/20 08:08:04;;;;;;;4.30;3.93;;;;;;;6.62;55.57;94118.19;5065546;28;20449;-75
2021/12/20 08:10:30;;;;;;;4.03;3.73;;;;;;;6.72;55.09;94123.94;5065134;28;20167;-76
2021/12/20 08:12:56;;;;;;;3.50;3.20;;;;;;;6.71;54.73;94122.31;5065755;28;20435;-74
2021/12/20 08:15:22;;;;;;;4.50;3.70;;;;;;;6.97;54.02;94124.38;5064870;28;20194;-75
2021/12/20 08:17:48;;;;;;;3.43;3.13;;;;;;;6.73;54.74;94127.34;5065072;28;20194;-74
2021/12/20 08:20:14;;;;;;;4.30;3.87;;;;;;;6.55;54.84;94140.75;5060339;28;20493;-75
2021/12/20 08:22:39;;;;;;;3.80;3.50;;;;;;;6.45;55.00;94135.81;5056435;28;20421;-74
2021/12/20 08:25:07;;;;;;;3.20;2.90;;;;;;;6.87;54.49;94136.06;5066268;28;20215;-74
2021/12/20 08:27:32;;;;;;;3.67;3.37;;;;;;;6.95;53.74;94141.97;5064346;28;20480;-74
2021/12/20 08:29:58;;;;;;;2.60;2.40;;;;;;;6.86;53.46;94134.47;5064864;28;20506;-74
2021/12/20 08:32:24;;;;;;;3.73;2.80;;;;;;;6.94;53.77;94142.94;5062267;28;20218;-74
2021/12/20 08:34:49;;;;;;;3.50;2.73;;;;;;;7.22;52.72;94143.03;5064885;28;20189;-74
2021/12/20 08:37:15;;;;;;;4.07;3.10;;;;;;;7.21;52.07;94146.63;5064690;28;20512;-74
2021/12/20 08:39:41;;;;;;;3.70;3.40;;;;;;;6.91;53.16;94145.94;5064511;28;20190;-74
2021/12/20 08:42:07;;;;;;;3.23;3.03;;;;;;;7.28;52.12;94145.91;5066037;28;20209;-74
2021/12/20 08:44:33;;;;;;;4.03;3.77;;;;;;;7.32;52.66;94142.75;5065646;28;20175;-74
2021/12/20 08:46:59;;;;;;;6.63;3.63;;;;;;;7.55;52.10;94150.34;5064415;28;20441;-76
2021/12/20 08:49:26;;;;;;;3.50;3.27;;;;;;;6.81;53.34;94135.84;5064919;28;20405;-76
2021/12/20 08:51:54;;;;;;;4.90;4.50;;;;;;;7.12;53.45;94149.56;5066303;28;20519;-76
2021/12/20 08:54:20;;;;;;;3.43;3.23;;;;;;;6.96;53.57;94147.97;5064223;28;20485;-75
2021/12/20 08:56:45;;;;;;;3.97;3.67;;;;;;;6.67;54.92;94143.66;5064112;28;20642;-76
2021/12/20 08:59:11;;;;;;;3.13;2.93;;;;;;;6.94;53.50;94150.75;5065477;28;20413;-75
2021/12/20 09:01:37;;;;;;;4.67;4.27;;;;;;;6.99;52.70;94138.00;5064074;28;20205;-75
2021/12/20 09:04:04;;;;;;;4.50;4.10;;;;;;;6.97;53.63;94136.59;5065916;28;20203;-75
2021/12/20 09:06:31;;;;;;;5.47;2.80;;;;;;;6.88;52.85;94119.50;5065868;28;20428;-75
2021/12/20 09:08:57;;;;;;;4.63;3.33;;;;;;;6.86;53.84;94142.28;5065689;28;20409;-75
2021/12/20 09:11:25;;;;;;;4.03;3.43;;;;;;;7.16;52.64;94149.00;5064046;28;20417;-76
2021/12/20 09:13:52;;;;;;;3.83;3.50;;;;;;;7.45;52.21;94144.63;5063843;28;20490;-75
2021/12/20 09:16:17;;;;;;;3.67;2.40;;;;;;;7.01;52.82;94135.22;5065606;28;20420;-75
2021/12/20 09:18:43;;;;;;;3.53;2.80;;;;;;;7.26;51.69;94137.47;5065382;28;20417;-75
2021/12/20 09:21:10;;;;;;;5.73;3.30;;;;;;;7.41;51.70;94139.00;5064064;28;20214;-76
2021/12/20 09:23:37;;;;;;;3.17;2.87;;;;;;;7.76;50.78;94144.31;5065054;28;20166;-75
2021/12/20 09:26:03;;;;;;;2.80;2.60;;;;;;;7.59;50.92;94142.97;5064027;28;20413;-75
2021/12/20 09:28:29;;;;;;;1.60;1.50;;;;;;;7.27;52.17;94134.69;5064698;28;20420;-75
2021/12/20 09:30:55;;;;;;;3.03;2.80;;;;;;;7.22;52.09;94148.25;5065193;28;20201;-75
2021/12/20 09:33:20;;;;;;;7.97;3.73;;;;;;;7.40;52.18;94150.41;5063790;28;20230;-75
2021/12/20 09:35:47;;;;;;;3.13;2.80;;;;;;;7.56;51.26;94138.94;5063851;28;20425;-75
2021/12/20 09:38:16;;;;;;;2.20;1.73;;;;;;;6.68;53.28;94132.25;5065016;28;20200;-75
2021/12/20 09:41:01;;;;;;;3.60;2.33;;;;;;;6.77;52.83;94138.97;5063617;28;20492;-75
2021/12/20 09:43:28;;;;;;;2.90;2.70;;;;;;;7.57;51.63;94140.56;5064109;28;20405;-75
2021/12/20 09:45:55;;;;;;;3.70;2.70;;;;;;;7.68;51.07;94141.81;5061457;28;20815;-74
2021/12/20 09:48:21;;;;;;;2.80;2.60;;;;;;;7.48;50.48;94143.47;5043573;28;20943;-76
2021/12/20 09:50:47;;;;;;;4.10;2.60;;;;;;;6.82;52.38;94137.44;5045480;28;20410;-77
2021/12/20 09:53:14;;;;;;;3.30;2.20;;;;;;;7.28;51.35;94128.47;5045281;28;20210;-76
2021/12/20 09:55:47;;;;;;;3.03;2.83;;;;;;;7.63;50.36;94139.00;5060985;28;20416;-74
2021/12/20 09:58:14;;;;;;;2.47;2.37;;;;;;;7.27;50.42;94118.28;5063378;28;20432;-76
2021/12/20 10:00:40;;;;;;;2.13;1.83;;;;;;;6.95;52.25;94120.38;5063116;28;20936;-75
2021/12/20 10:03:06;;;;;;;2.50;2.17;;;;;;;7.17;51.90;94129.78;5063502;28;20516;-74
2021/12/20 10:05:33;;;;;;;2.17;1.97;;;;;;;7.45;50.71;94131.63;5055080;28;20425;-77
2021/12/20 10:08:01;;;;;;;2.73;2.53;;;;;;;7.60;50.01;94123.75;5044732;28;20475;-77
2021/12/20 10:10:37;;;;;;;3.10;2.50;;;;;;;7.24;51.35;94101.22;5045167;28;20563;-77
2021/12/20 10:13:03;;;;;;;3.10;2.80;;;;;;;7.55;51.17;94121.72;5043643;28;20406;-76
2021/12/20 10:15:37;;;;;;;2.87;2.67;;;;;;;7.12;52.09;94107.94;5076901;28;20480;-76
2021/12/20 10:18:05;;;;;;;2.83;2.67;;;;;;;7.59;51.53;94122.94;5080115;28;20400;-75
2021/12/20 10:20:35;;;;;;;2.37;2.27;;;;;;;7.11;52.08;94112.31;5064702;28;20477;-76
2021/12/20 10:23:20;;;;;;;2.70;2.60;;;;;;;7.74;50.87;94115.03;5080282;28;20418;-75
2021/12/20 10:25:48;;;;;;;3.30;3.10;;;;;;;7.71;50.53;94120.63;5053362;28;20431;-75
2021/12/20 10:28:20;;;;;;;2.60;2.40;;;;;;;6.91;52.88;94103.53;5063327;28;20423;-77
2021/12/20 10:30:48;;;;;;;2.43;2.23;;;;;;;6.81;52.54;94083.00;5064607;28;20413;-76
2021/12/20 10:33:16;;;;;;;2.50;1.90;;;;;;;6.45;53.57;94118.44;5064577;28;20439;-76
2021/12/20 10:35:47;;;;;;;7.77;2.10;;;;;;;6.47;54.28;94102.66;5063371;28;20459;-76
2021/12/20 10:38:25;;;;;;;2.80;2.60;;;;;;;6.61;54.85;94107.00;5063149;28;20425;-76
2021/12/20 10:41:06;;;;;;;3.10;2.80;;;;;;;7.04;53.31;94133.06;5063156;28;20986;-77
2021/12/20 10:43:40;;;;;;;2.67;2.47;;;;;;;6.80;53.80;94123.81;5064552;28;20413;-75
2021/12/20 10:46:11;;;;;;;6.63;2.80;;;;;;;7.06;53.18;94125.09;5062203;28;20421;-75
2021/12/20 10:48:36;;;;;;;3.00;2.80;;;;;;;6.97;54.24;94132.19;5062915;28;20429;-75
2021/12/20 10:51:03;;;;;;;6.77;3.50;;;;;;;7.04;54.33;94135.66;5065595;28;20424;-77
2021/12/20 10:53:28;;;;;;;3.43;2.87;;;;;;;6.86;54.63;94140.47;5049462;28;20229;-78
2021/12/20 10:55:54;;;;;;;5.27;4.27;;;;;;;7.38;53.42;94135.97;5065041;28;20424;-77
2021/12/20 10:58:39;;;;;;;4.50;3.07;;;;;;;6.87;54.83;94139.50;5066501;28;20269;-75
2021/12/20 11:04:06;;;;;;;2.30;2.10;;;;;;;7.17;54.28;94127.19;5067514;28;20505;-79
2021/12/20 11:09:21;;;;;;;2.77;2.40;;;;;;;7.41;54.46;94140.81;5066493;28;20439;-78
2021/12/20 11:11:50;;;;;;;2.90;2.60;;;;;;;7.73;52.92;94144.66;5067025;28;20417;-79
2021/12/20 11:14:18;;;;;;;5.17;2.93;;;;;;;7.27;54.49;94144.31;5056912;28;20429;-78
2021/12/20 11:16:46;;;;;;;2.60;2.03;;;;;;;6.78;55.16;94146.59;5062919;28;20424;-78
2021/12/20 11:19:20;;;;;;;2.70;2.43;;;;;;;6.29;56.61;94123.81;5067931;28;20448;-78
2021/12/20 11:21:51;;;;;;;2.80;2.60;;;;;;;6.52;56.86;94143.69;5067386;28;20460;-77
2021/12/20 11:24:19;;;;;;;2.67;2.47;;;;;;;6.45;57.20;94130.63;5068121;28;20431;-76
2021/12/20 11:26:46;;;;;;;3.00;2.50;;;;;;;6.90;56.21;94128.72;5068151;28;20522;-76
2021/12/20 11:29:11;;;;;;;5.23;2.47;;;;;;;6.63;57.10;94122.44;5066548;28;20421;-76
2021/12/20 11:31:37;;;;;;;2.77;2.57;;;;;;;7.15;55.14;94121.38;5066024;28;20423;-76
2021/12/20 11:34:04;;;;;;;2.87;2.67;;;;;;;6.53;57.25;94111.53;5066563;28;20174;-78
2021/12/20 11:36:29;;;;;;;2.17;2.07;;;;;;;6.34;57.05;94131.09;5066155;28;20756;-78
2021/12/20 11:38:58;;;;;;;2.27;2.17;;;;;;;6.77;56.82;94116.41;5068232;28;20409;-78
2021/12/20 11:41:26;;;;;;;2.27;2.13;;;;;;;6.58;57.11;94116.97;5066747;28;20216;-78
2021/12/20 11:43:53;;;;;;;2.30;2.20;;;;;;;6.81;56.69;94120.22;5066342;28;20498;-77
2021/12/20 11:46:21;;;;;;;1.90;1.80;;;;;;;6.47;57.68;94122.63;5066370;28;20417;-78
2021/12/20 11:48:52;;;;;;;2.17;1.97;;;;;;;6.12;58.46;94120.59;5066317;28;20421;-78
2021/12/20 11:51:18;;;;;;;3.63;2.70;;;;;;;6.35;58.57;94124.88;5067884;28;20448;-77
2021/12/20 11:53:43;;;;;;;2.87;2.67;;;;;;;6.22;57.87;94134.16;5066396;28;20421;-79
2021/12/20 11:56:09;;;;;;;1.80;1.70;;;;;;;5.96;57.57;94137.19;5066793;28;20409;-76
2021/12/20 11:58:38;;;;;;;3.10;2.90;;;;;;;6.62;55.72;94149.41;5067948;28;20197;-77
2021/12/20 12:01:15;;;;;;;2.70;2.50;;;;;;;6.18;57.66;94145.06;5067245;28;20187;-75